createdAt,value
2022-12-15T00:00:21.745Z,-0.50
2022-12-15T00:03:07.554Z,-0.60
2022-12-15T00:05:53.184Z,-0.60
2022-12-15T00:08:38.897Z,-0.80
2022-12-15T00:11:32.125Z,-0.60
2022-12-15T00:14:18.408Z,-0.60
2022-12-15T00:17:04.723Z,-0.40
2022-12-15T00:19:53.120Z,-0.20
2022-12-15T00:22:38.663Z,-0.60
2022-12-15T00:25:27.748Z,-0.60
2022-12-15T00:28:16.004Z,-0.90
2022-12-15T00:31:04.512Z,-0.80
2022-12-15T00:33:50.134Z,-0.60
2022-12-15T00:36:35.468Z,-0.40
2022-12-15T00:39:04.114Z,-0.30
2022-12-15T00:41:31.820Z,-0.60
2022-12-15T00:43:59.242Z,-0.70
2022-12-15T00:46:50.277Z,-0.90
2022-12-15T00:49:35.966Z,-0.80
2022-12-15T00:52:21.708Z,-0.80
2022-12-15T00:55:07.180Z,-0.80
2022-12-15T00:57:52.998Z,-0.80
2022-12-15T01:00:39.882Z,-0.80
2022-12-15T01:03:30.650Z,-0.70
2022-12-15T01:06:16.629Z,-0.90
2022-12-15T01:09:03.107Z,-1.10
2022-12-15T01:11:48.372Z,-1.10
2022-12-15T01:14:33.618Z,-1.10
2022-12-15T01:17:19.395Z,-0.90
2022-12-15T01:20:04.985Z,-1.10
2022-12-15T01:22:31.985Z,-1.20
2022-12-15T01:24:59.032Z,-1.30
2022-12-15T01:27:26.051Z,-1.20
2022-12-15T01:29:53.075Z,-1.30
2022-12-15T01:32:20.217Z,-1.20
2022-12-15T01:34:47.682Z,-0.70
2022-12-15T01:37:14.695Z,-0.70
2022-12-15T01:40:00.164Z,-0.90
2022-12-15T01:42:31.071Z,-1.10
2022-12-15T01:45:23.888Z,-1.00
2022-12-15T01:47:54.002Z,-1.10
2022-12-15T01:50:22.738Z,-1.10
2022-12-15T01:52:51.041Z,-1.20
2022-12-15T01:55:20.409Z,-1.20
2022-12-15T01:57:48.338Z,-1.30
2022-12-15T02:00:15.794Z,-1.40
2022-12-15T02:02:43.251Z,-1.30
2022-12-15T02:05:11.232Z,-1.20
2022-12-15T02:07:38.589Z,-0.80
2022-12-15T02:10:10.337Z,-1.00
2022-12-15T02:13:13.974Z,-0.80
2022-12-15T02:15:51.027Z,-0.80
2022-12-15T02:18:38.576Z,-1.00
2022-12-15T02:21:21.817Z,-1.20
2022-12-15T02:24:14.041Z,-1.20
2022-12-15T02:27:07.753Z,-1.30
2022-12-15T02:30:06.813Z,-1.40
2022-12-15T02:33:01.968Z,-1.20
2022-12-15T02:35:32.624Z,-0.70
2022-12-15T02:38:00.752Z,-0.90
2022-12-15T02:40:28.044Z,-1.10
2022-12-15T02:42:58.519Z,-1.30
2022-12-15T02:45:36.454Z,-1.30
2022-12-15T02:48:28.644Z,-1.20
2022-12-15T02:51:14.734Z,-0.90
2022-12-15T02:54:06.304Z,-1.00
2022-12-15T02:56:41.804Z,-1.30
2022-12-15T02:59:20.699Z,-1.40
2022-12-15T03:01:58.133Z,-1.40
2022-12-15T03:04:27.148Z,-1.40
2022-12-15T03:07:01.055Z,-1.40
2022-12-15T03:09:28.767Z,-1.40
2022-12-15T03:11:56.326Z,-1.40
2022-12-15T03:14:25.683Z,-1.40
2022-12-15T03:16:54.377Z,-1.60
2022-12-15T03:19:22.372Z,-1.50
2022-12-15T03:21:49.530Z,-1.40
2022-12-15T03:24:16.594Z,-1.00
2022-12-15T03:26:44.017Z,-0.70
2022-12-15T03:29:11.488Z,-0.70
2022-12-15T03:31:41.354Z,-1.10
2022-12-15T03:34:08.608Z,-1.30
2022-12-15T03:36:35.960Z,-1.30
2022-12-15T03:39:03.670Z,-1.50
2022-12-15T03:41:30.844Z,-1.50
2022-12-15T03:43:58.067Z,-1.70
2022-12-15T03:46:25.116Z,-1.80
2022-12-15T03:48:52.362Z,-1.70
2022-12-15T03:51:19.794Z,-1.60
2022-12-15T03:53:50.195Z,-1.70
2022-12-15T03:56:18.007Z,-1.70
2022-12-15T03:58:44.999Z,-1.80
2022-12-15T04:01:21.117Z,-1.80
2022-12-15T04:03:48.384Z,-1.70
2022-12-15T04:06:15.549Z,-1.20
2022-12-15T04:08:42.852Z,-1.00
2022-12-15T04:11:09.787Z,-0.70
2022-12-15T04:13:37.134Z,-0.90
2022-12-15T04:16:05.760Z,-1.40
2022-12-15T04:18:33.312Z,-1.40
2022-12-15T04:21:00.496Z,-1.50
2022-12-15T04:23:28.001Z,-1.80
2022-12-15T04:26:14.064Z,-1.70
2022-12-15T04:29:01.607Z,-1.70
2022-12-15T04:31:50.233Z,-1.80
2022-12-15T04:34:41.886Z,-1.90
2022-12-15T04:37:32.627Z,-1.80
2022-12-15T04:40:18.923Z,-1.80
2022-12-15T04:43:06.281Z,-1.30
2022-12-15T04:45:52.532Z,-1.10
2022-12-15T04:48:38.189Z,-1.50
2022-12-15T04:51:24.222Z,-1.80
2022-12-15T04:54:12.771Z,-2.00
2022-12-15T04:56:58.556Z,-2.00
2022-12-15T04:59:44.134Z,-2.00
2022-12-15T05:02:29.719Z,-1.60
2022-12-15T05:05:15.981Z,-1.50
2022-12-15T05:08:01.785Z,-1.60
2022-12-15T05:10:50.595Z,-1.80
2022-12-15T05:13:36.822Z,-1.70
2022-12-15T05:16:27.194Z,-1.80
2022-12-15T05:19:12.971Z,-2.00
2022-12-15T05:21:58.171Z,-2.00
2022-12-15T05:24:43.686Z,-1.90
2022-12-15T05:27:28.986Z,-1.90
2022-12-15T05:30:14.603Z,-1.90
2022-12-15T05:32:42.139Z,-1.80
2022-12-15T05:35:09.296Z,-1.70
2022-12-15T05:37:38.650Z,-1.80
2022-12-15T05:40:06.492Z,-1.60
2022-12-15T05:42:33.742Z,-1.50
2022-12-15T05:45:01.067Z,-1.50
2022-12-15T05:47:28.452Z,-1.70
2022-12-15T05:49:55.501Z,-1.60
2022-12-15T05:52:22.867Z,-1.60
2022-12-15T05:54:50.057Z,-1.60
2022-12-15T05:57:24.494Z,-1.60
2022-12-15T05:59:51.375Z,-1.60
2022-12-15T06:02:18.308Z,-1.60
2022-12-15T06:04:45.664Z,-1.40
2022-12-15T06:07:12.696Z,-1.50
2022-12-15T06:09:39.904Z,-1.60
2022-12-15T06:12:07.055Z,-1.50
2022-12-15T06:14:36.444Z,-1.50
2022-12-15T06:17:03.500Z,-1.30
2022-12-15T06:19:30.672Z,-1.10
2022-12-15T06:21:57.960Z,-1.30
2022-12-15T06:24:26.034Z,-1.40
2022-12-15T06:26:53.291Z,-1.40
2022-12-15T06:29:20.379Z,-1.50
2022-12-15T06:31:47.745Z,-1.70
2022-12-15T06:34:17.250Z,-1.70
2022-12-15T06:36:44.451Z,-1.70
2022-12-15T06:39:13.848Z,-1.60
2022-12-15T06:41:41.374Z,-1.60
2022-12-15T06:44:13.088Z,-1.30
2022-12-15T06:46:40.222Z,-1.10
2022-12-15T06:49:11.253Z,-1.00
2022-12-15T06:51:38.720Z,-1.10
2022-12-15T06:54:06.069Z,-1.30
2022-12-15T06:56:42.610Z,-1.50
2022-12-15T06:59:14.763Z,-1.70
2022-12-15T07:01:42.303Z,-1.50
2022-12-15T07:04:11.630Z,-1.40
2022-12-15T07:06:39.830Z,-1.40
2022-12-15T07:09:11.603Z,-1.50
2022-12-15T07:11:53.148Z,-1.50
2022-12-15T07:14:36.980Z,-1.60
2022-12-15T07:17:21.299Z,-1.60
2022-12-15T07:20:04.848Z,-1.60
2022-12-15T07:22:37.628Z,-1.60
2022-12-15T07:25:05.519Z,-1.50
2022-12-15T07:27:35.737Z,-1.70
2022-12-15T07:30:03.203Z,-1.80
2022-12-15T07:32:30.732Z,-1.70
2022-12-15T07:34:57.859Z,-1.80
2022-12-15T07:40:28.644Z,-1.70
2022-12-15T07:43:23.465Z,-1.90
2022-12-15T07:49:38.437Z,-1.80
2022-12-15T07:52:32.204Z,-1.90
2022-12-15T07:54:59.594Z,-1.80
2022-12-15T07:57:38.758Z,-1.80
2022-12-15T08:00:12.724Z,-1.60
2022-12-15T08:02:42.348Z,-1.40
2022-12-15T08:05:10.509Z,-1.00
2022-12-15T08:07:37.698Z,-1.20
2022-12-15T08:10:10.925Z,-1.40
2022-12-15T08:12:38.404Z,-1.20
2022-12-15T08:15:06.736Z,-1.30
2022-12-15T08:17:34.121Z,-1.30
2022-12-15T08:20:06.178Z,-1.40
2022-12-15T08:22:37.071Z,-1.40
2022-12-15T08:25:04.645Z,-1.60
2022-12-15T08:27:31.649Z,-1.40
2022-12-15T08:29:58.730Z,-1.30
2022-12-15T08:32:25.848Z,-1.30
2022-12-15T08:34:52.962Z,-1.30
2022-12-15T08:37:30.643Z,-1.20
2022-12-15T08:40:05.868Z,-0.90
2022-12-15T08:42:46.900Z,-0.90
2022-12-15T08:45:13.946Z,-1.00
2022-12-15T08:47:41.141Z,-1.10
2022-12-15T08:50:22.219Z,-1.00
2022-12-15T08:53:13.806Z,-0.90
2022-12-15T08:55:36.639Z,-0.80
2022-12-15T08:58:04.093Z,-0.90
2022-12-15T09:00:31.175Z,-1.20
2022-12-15T09:03:00.630Z,-1.10
2022-12-15T09:05:27.996Z,-1.10
2022-12-15T09:08:06.736Z,-0.90
2022-12-15T09:10:34.081Z,-1.10
2022-12-15T09:13:10.323Z,-1.20
2022-12-15T09:16:11.298Z,-1.20
2022-12-15T09:19:03.404Z,-1.20
2022-12-15T09:24:41.338Z,-1.00
2022-12-15T09:27:08.695Z,-1.00
2022-12-15T09:29:35.963Z,-0.90
2022-12-15T09:32:06.554Z,-0.80
2022-12-15T09:34:36.437Z,-0.70
2022-12-15T09:37:04.548Z,-0.70
2022-12-15T09:39:32.683Z,-0.90
2022-12-15T09:42:32.015Z,-0.80
2022-12-15T09:45:18.194Z,-0.80
2022-12-15T09:48:02.948Z,-0.60
2022-12-15T09:50:41.264Z,-0.50
2022-12-15T09:53:36.690Z,-0.40
2022-12-15T09:56:07.231Z,-0.20
2022-12-15T09:58:53.257Z,0.00
2022-12-15T10:01:36.714Z,0.10
2022-12-15T10:04:27.356Z,0.10
2022-12-15T10:07:52.899Z,0.00
2022-12-15T10:11:15.758Z,0.10
2022-12-15T10:17:30.853Z,0.20
2022-12-15T10:20:24.999Z,0.20
2022-12-15T10:22:52.599Z,0.30
2022-12-15T10:25:30.884Z,0.50
2022-12-15T10:28:32.429Z,0.60
2022-12-15T10:31:08.027Z,0.50
2022-12-15T10:33:38.324Z,0.60
2022-12-15T10:36:16.245Z,0.60
2022-12-15T10:38:50.402Z,0.90
2022-12-15T10:41:36.279Z,1.00
2022-12-15T10:44:03.596Z,0.80
2022-12-15T10:46:36.678Z,0.70
2022-12-15T10:49:09.492Z,0.90
2022-12-15T10:51:47.256Z,0.80
2022-12-15T10:54:19.401Z,0.60
2022-12-15T10:56:58.771Z,0.50
2022-12-15T10:59:38.889Z,0.60
2022-12-15T11:02:24.718Z,0.60
2022-12-15T11:05:16.785Z,0.40
2022-12-15T11:08:18.673Z,0.30
2022-12-15T11:11:26.063Z,0.30
2022-12-15T11:14:19.792Z,0.40
2022-12-15T11:17:00.924Z,0.40
2022-12-15T11:20:03.002Z,0.40
2022-12-15T11:23:20.280Z,0.40
2022-12-15T11:26:06.836Z,0.40
2022-12-15T11:28:50.681Z,0.30
2022-12-15T11:31:40.326Z,0.40
2022-12-15T11:34:42.526Z,0.40
2022-12-15T11:37:18.067Z,0.70
2022-12-15T11:39:45.266Z,1.00
2022-12-15T11:42:36.509Z,1.20
2022-12-15T11:45:37.749Z,1.60
2022-12-15T11:48:18.432Z,2.20
2022-12-15T11:51:02.854Z,2.70
2022-12-15T11:54:08.321Z,3.10
2022-12-15T11:56:47.259Z,3.20
2022-12-15T11:59:21.273Z,3.70
2022-12-15T12:02:34.269Z,3.70
2022-12-15T12:05:03.698Z,4.40
2022-12-15T12:07:45.397Z,4.50
2022-12-15T12:10:36.142Z,4.60
2022-12-15T12:13:08.770Z,4.50
2022-12-15T12:15:50.464Z,5.20
2022-12-15T12:18:30.163Z,5.10
2022-12-15T12:21:15.479Z,5.20
2022-12-15T12:24:01.026Z,4.80
2022-12-15T12:26:48.768Z,5.00
2022-12-15T12:29:34.089Z,5.40
2022-12-15T12:32:20.132Z,5.50
2022-12-15T12:35:30.490Z,5.20
2022-12-15T12:37:52.116Z,5.30
2022-12-15T12:40:29.163Z,5.60
2022-12-15T12:42:58.508Z,5.50
2022-12-15T12:45:41.977Z,5.50
2022-12-15T12:48:44.115Z,5.40
2022-12-15T12:51:25.043Z,5.50
2022-12-15T12:53:53.246Z,5.40
2022-12-15T12:56:41.862Z,5.50
2022-12-15T12:59:30.555Z,5.80
2022-12-15T13:02:20.472Z,6.30
2022-12-15T13:05:02.153Z,6.60
2022-12-15T13:07:29.163Z,6.10
2022-12-15T13:10:07.895Z,6.10
2022-12-15T13:12:50.756Z,6.20
2022-12-15T13:15:31.291Z,6.60
2022-12-15T13:18:24.762Z,6.70
2022-12-15T13:20:56.642Z,6.80
2022-12-15T13:23:23.736Z,7.10
2022-12-15T13:25:57.121Z,7.10
2022-12-15T13:28:30.960Z,7.00
2022-12-15T13:31:16.921Z,7.00
2022-12-15T13:33:50.080Z,6.90
2022-12-15T13:36:41.537Z,7.00
2022-12-15T13:39:17.664Z,7.10
2022-12-15T13:44:57.494Z,7.60
2022-12-15T13:47:28.463Z,7.50
2022-12-15T13:50:19.225Z,7.50
2022-12-15T13:56:10.220Z,7.00
2022-12-15T13:58:47.964Z,6.80
2022-12-15T14:01:34.189Z,6.90
2022-12-15T14:04:16.222Z,6.90
2022-12-15T14:06:54.133Z,6.80
2022-12-15T14:09:35.592Z,6.60
2022-12-15T14:12:05.841Z,6.50
2022-12-15T14:14:37.321Z,6.60
2022-12-15T14:17:09.826Z,6.70
2022-12-15T14:22:34.608Z,6.90
2022-12-15T14:25:16.561Z,7.00
2022-12-15T14:27:43.823Z,7.10
2022-12-15T14:30:32.861Z,7.10
2022-12-15T14:33:07.118Z,7.00
2022-12-15T14:35:44.885Z,6.90
2022-12-15T14:38:22.899Z,7.10
2022-12-15T14:40:52.279Z,7.10
2022-12-15T14:43:32.521Z,7.00
2022-12-15T14:46:23.496Z,7.10
2022-12-15T14:49:06.373Z,6.90
2022-12-15T14:51:43.575Z,6.60
2022-12-15T14:54:39.298Z,6.90
2022-12-15T14:57:09.167Z,6.80
2022-12-15T14:59:40.207Z,6.30
2022-12-15T15:02:23.012Z,5.90
2022-12-15T15:03:15.625Z,6.90
2022-12-15T15:04:56.752Z,5.90
2022-12-15T15:07:24.266Z,5.60
2022-12-15T15:09:52.556Z,5.30
2022-12-15T15:12:22.089Z,5.20
2022-12-15T15:14:52.473Z,5.20
2022-12-15T15:17:44.847Z,5.00
2022-12-15T15:20:38.344Z,5.00
2022-12-15T15:23:08.599Z,4.70
2022-12-15T15:25:50.099Z,4.40
2022-12-15T15:28:20.124Z,4.10
2022-12-15T15:30:56.652Z,4.10
2022-12-15T15:33:25.307Z,3.90
2022-12-15T15:35:55.471Z,4.00
2022-12-15T15:38:39.313Z,3.90
2022-12-15T15:41:16.226Z,3.70
2022-12-15T15:43:43.416Z,3.60
2022-12-15T15:46:19.914Z,3.60
2022-12-15T15:48:51.096Z,3.50
2022-12-15T15:51:18.727Z,3.30
2022-12-15T15:53:46.650Z,3.60
2022-12-15T15:56:18.214Z,3.90
2022-12-15T15:58:45.450Z,3.70
2022-12-15T16:01:13.910Z,3.50
2022-12-15T16:03:41.441Z,3.20
2022-12-15T16:06:17.717Z,3.00
2022-12-15T16:08:47.152Z,3.00
2022-12-15T16:11:14.492Z,2.80
2022-12-15T16:13:41.498Z,2.70
2022-12-15T16:16:22.050Z,2.60
2022-12-15T16:18:49.407Z,2.50
2022-12-15T16:21:18.032Z,2.40
2022-12-15T16:23:47.681Z,2.30
2022-12-15T16:26:27.740Z,2.30
2022-12-15T16:28:58.328Z,2.20
2022-12-15T16:31:32.913Z,2.20
2022-12-15T16:34:07.243Z,2.10
2022-12-15T16:36:35.422Z,2.20
2022-12-15T16:39:03.065Z,2.60
2022-12-15T16:41:30.238Z,2.40
2022-12-15T16:43:58.655Z,2.10
2022-12-15T16:46:26.061Z,2.30
2022-12-15T16:48:53.693Z,2.20
2022-12-15T16:51:37.263Z,2.10
2022-12-15T16:54:04.846Z,2.00
2022-12-15T16:56:35.637Z,2.00
2022-12-15T16:59:31.395Z,2.10
2022-12-15T17:01:52.222Z,1.90
2022-12-15T17:04:19.621Z,1.80
2022-12-15T17:06:46.632Z,1.80
2022-12-15T17:09:28.289Z,1.80
2022-12-15T17:11:55.884Z,1.80
2022-12-15T17:14:25.719Z,1.70
2022-12-15T17:16:55.842Z,1.70
2022-12-15T17:19:22.766Z,1.60
2022-12-15T17:21:54.219Z,1.70
2022-12-15T17:24:22.497Z,1.50
2022-12-15T17:26:52.641Z,1.60
2022-12-15T17:29:25.561Z,1.70
2022-12-15T17:31:52.981Z,1.60
2022-12-15T17:34:32.898Z,1.50
2022-12-15T17:37:05.419Z,1.50
2022-12-15T17:39:34.949Z,1.40
2022-12-15T17:42:03.037Z,1.40
2022-12-15T17:44:36.130Z,1.20
2022-12-15T17:47:06.300Z,1.10
2022-12-15T17:49:36.497Z,1.00
2022-12-15T17:52:19.413Z,1.00
2022-12-15T17:54:50.377Z,1.00
2022-12-15T17:57:20.628Z,1.10
2022-12-15T17:59:49.353Z,0.90
2022-12-15T18:02:16.837Z,1.00
2022-12-15T18:04:44.381Z,0.90
2022-12-15T18:07:20.529Z,0.90
2022-12-15T18:09:48.027Z,0.90
2022-12-15T18:12:21.077Z,1.10
2022-12-15T18:14:48.636Z,1.20
2022-12-15T18:17:16.884Z,1.40
2022-12-15T18:19:44.010Z,1.50
2022-12-15T18:22:20.611Z,1.30
2022-12-15T18:24:48.024Z,1.10
2022-12-15T18:27:27.391Z,1.00
2022-12-15T18:29:55.394Z,0.90
2022-12-15T18:32:27.403Z,0.80
2022-12-15T18:34:55.524Z,0.70
2022-12-15T18:37:25.127Z,0.80
2022-12-15T18:39:52.371Z,0.70
2022-12-15T18:42:21.485Z,0.70
2022-12-15T18:44:53.263Z,0.70
2022-12-15T18:47:24.944Z,0.70
2022-12-15T18:49:55.628Z,0.70
2022-12-15T18:52:27.603Z,0.60
2022-12-15T18:54:57.301Z,0.70
2022-12-15T18:57:37.993Z,0.60
2022-12-15T19:00:08.185Z,0.60
2022-12-15T19:02:35.328Z,0.60
2022-12-15T19:05:02.672Z,0.60
2022-12-15T19:07:33.989Z,0.50
2022-12-15T19:10:01.570Z,0.50
2022-12-15T19:12:29.259Z,0.50
2022-12-15T19:14:56.615Z,0.50
2022-12-15T19:17:43.229Z,0.50
2022-12-15T19:20:39.290Z,0.50
2022-12-15T19:23:07.224Z,0.50
2022-12-15T19:25:37.638Z,0.50
2022-12-15T19:28:07.118Z,0.40
2022-12-15T19:30:40.306Z,0.40
2022-12-15T19:33:10.729Z,0.50
2022-12-15T19:35:40.106Z,0.40
2022-12-15T19:38:07.835Z,0.50
2022-12-15T19:40:37.228Z,0.50
2022-12-15T19:43:08.521Z,0.40
2022-12-15T19:45:35.805Z,0.40
2022-12-15T19:48:03.764Z,0.30
2022-12-15T19:50:36.823Z,0.40
2022-12-15T19:53:25.524Z,0.40
2022-12-15T19:55:55.114Z,0.50
2022-12-15T19:58:31.040Z,0.50
2022-12-15T20:01:10.533Z,0.30
2022-12-15T20:03:38.641Z,0.30
2022-12-15T20:06:16.041Z,0.40
2022-12-15T20:08:45.766Z,0.40
2022-12-15T20:11:19.463Z,0.30
2022-12-15T20:13:49.740Z,0.40
2022-12-15T20:16:19.110Z,0.40
2022-12-15T20:18:47.976Z,0.60
2022-12-15T20:21:21.919Z,0.80
2022-12-15T20:24:00.789Z,0.80
2022-12-15T20:26:30.149Z,0.80
2022-12-15T20:28:58.185Z,0.70
2022-12-15T20:31:26.111Z,0.90
2022-12-15T20:33:53.453Z,1.00
2022-12-15T20:36:26.931Z,0.90
2022-12-15T20:39:01.047Z,0.70
2022-12-15T20:41:29.535Z,0.80
2022-12-15T20:43:57.949Z,0.50
2022-12-15T20:46:28.336Z,0.70
2022-12-15T20:48:56.868Z,0.50
2022-12-15T20:51:29.266Z,0.30
2022-12-15T20:53:58.246Z,0.30
2022-12-15T20:56:25.862Z,0.20
2022-12-15T20:58:54.881Z,0.20
2022-12-15T21:01:26.484Z,0.30
2022-12-15T21:03:58.884Z,0.10
2022-12-15T21:06:27.580Z,0.20
2022-12-15T21:08:55.831Z,0.30
2022-12-15T21:11:32.612Z,0.20
2022-12-15T21:14:04.184Z,0.70
2022-12-15T21:16:32.285Z,0.90
2022-12-15T21:19:20.974Z,0.90
2022-12-15T21:24:42.303Z,1.20
2022-12-15T21:27:13.279Z,1.20
2022-12-15T21:29:40.562Z,0.90
2022-12-15T21:32:07.818Z,0.70
2022-12-15T21:34:35.344Z,0.50
2022-12-15T21:37:03.650Z,0.50
2022-12-15T21:39:35.564Z,0.60
2022-12-15T21:42:11.943Z,0.50
2022-12-15T21:44:41.749Z,0.70
2022-12-15T21:47:14.781Z,0.80
2022-12-15T21:49:41.995Z,0.70
2022-12-15T21:52:09.760Z,0.80
2022-12-15T21:54:36.770Z,0.80
2022-12-15T21:57:03.856Z,0.80
2022-12-15T21:59:32.709Z,0.90
2022-12-15T22:02:24.585Z,1.10
2022-12-15T22:04:52.080Z,1.00
2022-12-15T22:07:19.082Z,1.00
2022-12-15T22:09:46.392Z,1.10
2022-12-15T22:12:20.506Z,1.00
2022-12-15T22:14:48.340Z,0.90
2022-12-15T22:17:21.821Z,0.70
2022-12-15T22:19:48.746Z,0.60
2022-12-15T22:22:16.660Z,0.50
2022-12-15T22:24:46.900Z,0.50
2022-12-15T22:27:22.152Z,0.60
2022-12-15T22:29:50.453Z,0.70
2022-12-15T22:32:18.049Z,0.60
2022-12-15T22:34:45.342Z,0.50
2022-12-15T22:37:12.252Z,0.60
2022-12-15T22:39:39.741Z,0.60
2022-12-15T22:42:07.231Z,0.60
2022-12-15T22:44:37.339Z,0.60
2022-12-15T22:47:04.940Z,0.60
2022-12-15T22:49:37.574Z,0.70
2022-12-15T22:52:20.673Z,0.60
2022-12-15T22:54:48.287Z,0.50
2022-12-15T22:57:24.600Z,0.50
2022-12-15T23:00:00.678Z,0.60
2022-12-15T23:02:51.541Z,0.60
2022-12-15T23:05:20.144Z,0.60
2022-12-15T23:07:47.466Z,0.50
2022-12-15T23:10:34.960Z,0.50
2022-12-15T23:13:02.030Z,0.40
2022-12-15T23:15:49.200Z,0.50
2022-12-15T23:18:16.993Z,0.50
2022-12-15T23:20:43.981Z,0.70
2022-12-15T23:23:11.328Z,0.70
2022-12-15T23:25:38.549Z,0.80
2022-12-15T23:28:05.772Z,0.50
2022-12-15T23:30:32.808Z,0.40
2022-12-15T23:32:59.925Z,0.30
2022-12-15T23:35:26.968Z,0.30
2022-12-15T23:37:54.010Z,0.30
2022-12-15T23:40:22.396Z,0.20
2022-12-15T23:42:51.183Z,0.20
2022-12-15T23:45:19.411Z,0.20
2022-12-15T23:47:47.678Z,0.20
2022-12-15T23:50:14.851Z,0.00
2022-12-15T23:52:41.825Z,-0.30
2022-12-15T23:55:11.389Z,-0.20
2022-12-15T23:57:39.502Z,-0.20
